Terminal Aerodrome Forecast
Issued by NWS

Home | Current Version | Previous Version | Text Only | Print | Product List | Glossary On
Versions: 1 2 3 4 5 6 7 8 9 10 11 12 13 14 15 16 17 18 19 20 21 22
000
FTUS46 KEKA 220541
TAFUKI
TAF
KUKI 220541Z 2206/2306 00000KT P6SM SCT200
     FM222000 VRB04KT P6SM OVC150=

USA.gov is the U.S. government's official web portal to all federal, state and local government web resources and services.